createdAt,value
2022-10-14T00:00:00.799Z,100.00
2022-10-14T00:01:10.373Z,100.00
2022-10-14T00:02:12.508Z,100.00
2022-10-14T00:03:14.486Z,100.00
2022-10-14T00:04:16.673Z,100.00
2022-10-14T00:05:21.412Z,100.00
2022-10-14T00:06:29.691Z,100.00
2022-10-14T00:07:31.708Z,100.00
2022-10-14T00:08:34.083Z,100.00
2022-10-14T00:09:36.688Z,100.00
2022-10-14T00:10:40.392Z,100.00
2022-10-14T00:11:45.772Z,100.00
2022-10-14T00:12:47.869Z,100.00
2022-10-14T00:13:51.179Z,100.00
2022-10-14T00:14:53.325Z,100.00
2022-10-14T00:15:58.076Z,100.00
2022-10-14T00:17:01.283Z,100.00
2022-10-14T00:18:03.516Z,100.00
2022-10-14T00:19:06.574Z,100.00
2022-10-14T00:20:09.102Z,100.00
2022-10-14T00:21:11.353Z,100.00
2022-10-14T00:22:17.922Z,100.00
2022-10-14T00:23:20.467Z,100.00
2022-10-14T00:24:24.020Z,100.00
2022-10-14T00:25:29.142Z,100.00
2022-10-14T00:26:34.915Z,100.00
2022-10-14T00:27:36.930Z,100.00
2022-10-14T00:28:40.124Z,100.00
2022-10-14T00:29:42.404Z,100.00
2022-10-14T00:30:54.674Z,100.00
2022-10-14T00:31:56.892Z,100.00
2022-10-14T00:32:59.945Z,100.00
2022-10-14T00:34:02.173Z,100.00
2022-10-14T00:35:04.776Z,100.00
2022-10-14T00:36:07.881Z,100.00
2022-10-14T00:37:11.568Z,100.00
2022-10-14T00:38:15.189Z,100.00
2022-10-14T00:39:17.663Z,100.00
2022-10-14T00:40:21.799Z,100.00
2022-10-14T00:41:27.783Z,100.00
2022-10-14T00:42:34.709Z,100.00
2022-10-14T00:44:02.877Z,100.00
2022-10-14T00:45:15.748Z,100.00
2022-10-14T00:46:19.547Z,100.00
2022-10-14T00:47:22.940Z,100.00
2022-10-14T00:48:26.840Z,100.00
2022-10-14T00:49:41.087Z,100.00
2022-10-14T00:50:45.864Z,100.00
2022-10-14T00:52:17.507Z,100.00
2022-10-14T00:53:21.582Z,100.00
2022-10-14T00:54:34.397Z,100.00
2022-10-14T00:55:40.541Z,100.00
2022-10-14T00:56:46.050Z,100.00
2022-10-14T00:57:48.532Z,100.00
2022-10-14T00:58:51.758Z,100.00
2022-10-14T01:00:00.153Z,100.00
2022-10-14T01:01:08.114Z,100.00
2022-10-14T01:02:13.762Z,100.00
2022-10-14T01:03:28.276Z,100.00
2022-10-14T01:04:31.233Z,100.00
2022-10-14T01:05:41.606Z,100.00
2022-10-14T01:07:00.411Z,100.00
2022-10-14T01:08:21.206Z,100.00
2022-10-14T01:09:28.348Z,100.00
2022-10-14T01:10:39.161Z,100.00
2022-10-14T01:12:26.852Z,100.00
2022-10-14T01:13:35.136Z,100.00
2022-10-14T01:15:00.626Z,100.00
2022-10-14T01:16:17.843Z,100.00
2022-10-14T01:17:32.502Z,100.00
2022-10-14T01:18:56.396Z,100.00
2022-10-14T01:20:35.534Z,100.00
2022-10-14T01:21:45.743Z,100.00
2022-10-14T01:23:10.413Z,100.00
2022-10-14T01:24:37.423Z,100.00
2022-10-14T01:26:08.301Z,100.00
2022-10-14T01:27:28.876Z,100.00
2022-10-14T01:29:12.949Z,100.00
2022-10-14T01:30:19.834Z,100.00
2022-10-14T01:31:31.063Z,100.00
2022-10-14T01:32:39.366Z,100.00
2022-10-14T01:33:46.681Z,100.00
2022-10-14T01:35:15.073Z,100.00
2022-10-14T01:36:35.289Z,100.00
2022-10-14T01:37:43.562Z,100.00
2022-10-14T01:39:06.764Z,100.00
2022-10-14T01:40:17.744Z,100.00
2022-10-14T01:42:01.152Z,100.00
2022-10-14T01:43:06.082Z,100.00
2022-10-14T01:44:12.275Z,100.00
2022-10-14T01:45:20.741Z,100.00
2022-10-14T01:46:25.798Z,100.00
2022-10-14T01:47:31.384Z,100.00
2022-10-14T01:48:37.218Z,100.00
2022-10-14T01:49:47.684Z,100.00
2022-10-14T01:50:53.117Z,100.00
2022-10-14T01:52:05.957Z,100.00
2022-10-14T01:53:14.602Z,100.00
2022-10-14T01:54:22.998Z,100.00
2022-10-14T01:55:29.936Z,100.00
2022-10-14T01:56:37.048Z,100.00
2022-10-14T01:57:47.357Z,100.00
2022-10-14T01:58:52.211Z,100.00
2022-10-14T01:59:57.068Z,100.00
2022-10-14T02:01:03.833Z,100.00
2022-10-14T02:02:07.134Z,100.00
2022-10-14T02:03:13.332Z,100.00
2022-10-14T02:04:18.225Z,100.00
2022-10-14T02:05:36.699Z,100.00
2022-10-14T02:06:44.528Z,100.00
2022-10-14T02:07:52.352Z,100.00
2022-10-14T02:09:25.318Z,100.00
2022-10-14T02:10:41.987Z,100.00
2022-10-14T02:11:49.812Z,100.00
2022-10-14T02:13:20.661Z,100.00
2022-10-14T02:14:51.808Z,100.00
2022-10-14T02:15:56.390Z,100.00
2022-10-14T02:17:17.691Z,100.00
2022-10-14T02:18:40.630Z,100.00
2022-10-14T02:19:55.175Z,100.00
2022-10-14T02:21:07.262Z,100.00
2022-10-14T02:22:43.598Z,100.00
2022-10-14T02:24:35.244Z,100.00
2022-10-14T02:25:42.128Z,100.00
2022-10-14T02:26:46.664Z,100.00
2022-10-14T02:27:52.389Z,100.00
2022-10-14T02:28:58.329Z,100.00
2022-10-14T02:30:01.840Z,100.00
2022-10-14T02:31:09.223Z,100.00
2022-10-14T02:32:15.760Z,100.00
2022-10-14T02:33:22.734Z,100.00
2022-10-14T02:34:26.257Z,100.00
2022-10-14T02:35:32.908Z,100.00
2022-10-14T02:36:42.921Z,100.00
2022-10-14T02:37:47.980Z,100.00
2022-10-14T02:38:55.462Z,100.00
2022-10-14T02:40:12.317Z,100.00
2022-10-14T02:41:18.524Z,100.00
2022-10-14T02:42:20.849Z,100.00
2022-10-14T02:43:23.801Z,100.00
2022-10-14T02:44:25.849Z,100.00
2022-10-14T02:45:28.130Z,100.00
2022-10-14T02:46:30.455Z,100.00
2022-10-14T02:47:34.033Z,100.00
2022-10-14T02:48:36.535Z,100.00
2022-10-14T02:49:38.585Z,100.00
2022-10-14T02:50:43.460Z,100.00
2022-10-14T02:51:46.500Z,100.00
2022-10-14T02:52:48.600Z,100.00
2022-10-14T02:53:54.233Z,100.00
2022-10-14T02:54:56.714Z,100.00
2022-10-14T02:55:58.717Z,100.00
2022-10-14T02:57:00.908Z,100.00
2022-10-14T02:58:03.979Z,100.00
2022-10-14T02:59:06.160Z,100.00
2022-10-14T03:00:09.034Z,100.00
2022-10-14T03:01:11.456Z,100.00
2022-10-14T03:02:14.270Z,100.00
2022-10-14T03:03:17.276Z,100.00
2022-10-14T03:04:19.522Z,100.00
2022-10-14T03:05:21.550Z,100.00
2022-10-14T03:06:24.164Z,100.00
2022-10-14T03:07:26.453Z,100.00
2022-10-14T03:08:31.052Z,100.00
2022-10-14T03:09:34.972Z,100.00
2022-10-14T03:10:36.995Z,100.00
2022-10-14T03:11:39.321Z,100.00
2022-10-14T03:12:45.291Z,100.00
2022-10-14T03:13:56.019Z,100.00
2022-10-14T03:14:58.074Z,100.00
2022-10-14T03:16:01.723Z,100.00
2022-10-14T03:17:04.829Z,100.00
2022-10-14T03:18:08.918Z,100.00
2022-10-14T03:19:23.641Z,100.00
2022-10-14T03:20:28.835Z,100.00
2022-10-14T03:21:33.302Z,100.00
2022-10-14T03:22:38.437Z,100.00
2022-10-14T03:23:41.973Z,100.00
2022-10-14T03:24:45.235Z,100.00
2022-10-14T03:25:59.370Z,100.00
2022-10-14T03:27:09.615Z,100.00
2022-10-14T03:28:12.712Z,100.00
2022-10-14T03:29:26.868Z,100.00
2022-10-14T03:30:35.693Z,100.00
2022-10-14T03:31:45.189Z,100.00
2022-10-14T03:33:03.184Z,100.00
2022-10-14T03:34:27.492Z,100.00
2022-10-14T03:35:39.213Z,100.00
2022-10-14T03:36:46.513Z,100.00
2022-10-14T03:37:50.193Z,100.00
2022-10-14T03:38:55.998Z,100.00
2022-10-14T03:40:17.069Z,100.00
2022-10-14T03:41:19.327Z,100.00
2022-10-14T03:42:30.383Z,100.00
2022-10-14T03:43:32.470Z,100.00
2022-10-14T03:44:35.552Z,100.00
2022-10-14T03:46:01.518Z,100.00
2022-10-14T03:47:05.666Z,100.00
2022-10-14T03:48:09.710Z,100.00
2022-10-14T03:49:15.051Z,100.00
2022-10-14T03:50:17.087Z,100.00
2022-10-14T03:51:24.118Z,100.00
2022-10-14T03:52:28.076Z,100.00
2022-10-14T03:53:57.663Z,100.00
2022-10-14T03:55:03.967Z,100.00
2022-10-14T03:56:06.964Z,100.00
2022-10-14T03:57:11.112Z,100.00
2022-10-14T03:58:20.794Z,100.00
2022-10-14T03:59:27.554Z,100.00
2022-10-14T04:00:32.736Z,100.00
2022-10-14T04:01:53.311Z,100.00
2022-10-14T04:03:01.852Z,100.00
2022-10-14T04:04:12.850Z,100.00
2022-10-14T04:05:15.122Z,100.00
2022-10-14T04:06:19.510Z,100.00
2022-10-14T04:07:21.739Z,100.00
2022-10-14T04:08:29.397Z,100.00
2022-10-14T04:09:43.639Z,100.00
2022-10-14T04:10:51.528Z,100.00
2022-10-14T04:11:53.707Z,100.00
2022-10-14T04:13:28.033Z,100.00
2022-10-14T04:14:30.193Z,100.00
2022-10-14T04:15:35.956Z,100.00
2022-10-14T04:17:12.397Z,100.00
2022-10-14T04:18:14.550Z,100.00
2022-10-14T04:19:18.656Z,100.00
2022-10-14T04:20:21.297Z,100.00
2022-10-14T04:21:28.997Z,100.00
2022-10-14T04:22:33.486Z,100.00
2022-10-14T04:23:38.445Z,100.00
2022-10-14T04:24:51.391Z,100.00
2022-10-14T04:25:53.492Z,100.00
2022-10-14T04:26:56.475Z,100.00
2022-10-14T04:28:08.310Z,100.00
2022-10-14T04:29:28.353Z,100.00
2022-10-14T04:30:37.233Z,100.00
2022-10-14T04:31:40.787Z,100.00
2022-10-14T04:32:43.364Z,100.00
2022-10-14T04:33:46.137Z,100.00
2022-10-14T04:34:55.178Z,100.00
2022-10-14T04:36:02.164Z,100.00
2022-10-14T04:37:09.457Z,100.00
2022-10-14T04:38:44.012Z,100.00
2022-10-14T04:39:47.497Z,100.00
2022-10-14T04:40:49.711Z,100.00
2022-10-14T04:41:51.985Z,100.00
2022-10-14T04:42:57.480Z,100.00
2022-10-14T04:44:08.323Z,100.00
2022-10-14T04:45:18.126Z,100.00
2022-10-14T04:46:26.623Z,100.00
2022-10-14T04:47:29.544Z,100.00
2022-10-14T04:48:36.123Z,100.00
2022-10-14T04:49:40.139Z,100.00
2022-10-14T04:50:52.665Z,100.00
2022-10-14T04:52:17.655Z,100.00
2022-10-14T04:53:46.072Z,100.00
2022-10-14T04:55:06.640Z,100.00
2022-10-14T04:56:13.061Z,100.00
2022-10-14T04:57:25.037Z,100.00
2022-10-14T04:58:27.099Z,96.88
2022-10-14T04:59:31.182Z,94.98
2022-10-14T05:01:05.592Z,98.95
2022-10-14T05:02:12.260Z,100.00
2022-10-14T05:03:20.979Z,100.00
2022-10-14T05:04:24.100Z,100.00
2022-10-14T05:05:27.089Z,100.00
2022-10-14T05:06:32.128Z,100.00
2022-10-14T05:07:36.396Z,100.00
2022-10-14T05:08:55.958Z,100.00
2022-10-14T05:09:58.314Z,100.00
2022-10-14T05:11:10.339Z,100.00
2022-10-14T05:12:20.062Z,100.00
2022-10-14T05:13:28.891Z,100.00
2022-10-14T05:14:37.241Z,100.00
2022-10-14T05:15:50.629Z,100.00
2022-10-14T05:16:57.175Z,100.00
2022-10-14T05:18:04.685Z,100.00
2022-10-14T05:19:25.146Z,100.00
2022-10-14T05:20:28.700Z,100.00
2022-10-14T05:21:33.047Z,100.00
2022-10-14T05:22:48.268Z,100.00
2022-10-14T05:23:50.527Z,100.00
2022-10-14T05:24:52.893Z,100.00
2022-10-14T05:25:55.640Z,100.00
2022-10-14T05:26:59.368Z,100.00
2022-10-14T05:28:03.870Z,100.00
2022-10-14T05:29:05.988Z,100.00
2022-10-14T05:30:08.686Z,100.00
2022-10-14T05:31:16.117Z,100.00
2022-10-14T05:32:27.197Z,100.00
2022-10-14T05:33:36.639Z,100.00
2022-10-14T05:34:39.722Z,100.00
2022-10-14T05:35:58.479Z,100.00
2022-10-14T05:37:03.892Z,100.00
2022-10-14T05:38:14.015Z,100.00
2022-10-14T05:39:18.667Z,100.00
2022-10-14T05:40:21.015Z,100.00
2022-10-14T05:41:23.620Z,100.00
2022-10-14T05:42:27.902Z,100.00
2022-10-14T05:43:33.155Z,100.00
2022-10-14T05:44:37.811Z,100.00
2022-10-14T05:45:40.072Z,100.00
2022-10-14T05:46:45.125Z,100.00
2022-10-14T05:47:50.691Z,100.00
2022-10-14T05:48:56.759Z,100.00
2022-10-14T05:49:59.641Z,100.00
2022-10-14T05:51:03.843Z,100.00
2022-10-14T05:52:09.788Z,100.00
2022-10-14T05:53:12.626Z,100.00
2022-10-14T05:54:23.035Z,100.00
2022-10-14T05:55:43.112Z,100.00
2022-10-14T05:56:51.562Z,100.00
2022-10-14T05:58:02.064Z,100.00
2022-10-14T05:59:11.231Z,100.00
2022-10-14T06:00:21.836Z,100.00
2022-10-14T06:01:35.061Z,100.00
2022-10-14T06:02:39.094Z,100.00
2022-10-14T06:03:41.814Z,100.00
2022-10-14T06:04:44.967Z,100.00
2022-10-14T06:05:48.956Z,100.00
2022-10-14T06:06:51.831Z,100.00
2022-10-14T06:07:54.076Z,100.00
2022-10-14T06:08:57.358Z,100.00
2022-10-14T06:10:00.694Z,100.00
2022-10-14T06:11:03.732Z,100.00
2022-10-14T06:12:08.395Z,100.00
2022-10-14T06:13:11.618Z,100.00
2022-10-14T06:14:15.590Z,100.00
2022-10-14T06:15:20.883Z,100.00
2022-10-14T06:16:25.498Z,100.00
2022-10-14T06:17:29.482Z,100.00
2022-10-14T06:18:32.243Z,100.00
2022-10-14T06:19:36.184Z,100.00
2022-10-14T06:20:39.215Z,100.00
2022-10-14T06:21:44.443Z,100.00
2022-10-14T06:22:46.727Z,100.00
2022-10-14T06:23:53.292Z,100.00
2022-10-14T06:24:58.337Z,100.00
2022-10-14T06:26:07.746Z,100.00
2022-10-14T06:27:10.902Z,100.00
2022-10-14T06:28:14.970Z,100.00
2022-10-14T06:29:31.736Z,100.00
2022-10-14T06:30:35.240Z,100.00
2022-10-14T06:31:40.847Z,100.00
2022-10-14T06:32:49.077Z,100.00
2022-10-14T06:33:56.405Z,100.00
2022-10-14T06:35:02.017Z,100.00
2022-10-14T06:36:07.285Z,100.00
2022-10-14T06:37:12.069Z,100.00
2022-10-14T06:38:16.049Z,97.52
2022-10-14T06:39:20.992Z,87.77
2022-10-14T06:40:24.296Z,79.11
2022-10-14T06:41:28.959Z,72.16
2022-10-14T06:42:32.484Z,67.51
2022-10-14T06:43:35.711Z,63.51
2022-10-14T06:44:39.162Z,60.96
2022-10-14T06:45:41.797Z,58.14
2022-10-14T06:46:44.296Z,53.95
2022-10-14T06:47:48.036Z,52.88
2022-10-14T06:48:50.812Z,50.55
2022-10-14T06:49:53.924Z,50.62
2022-10-14T06:51:00.076Z,47.67
2022-10-14T06:52:04.418Z,46.41
2022-10-14T06:53:06.791Z,45.32
2022-10-14T06:54:09.456Z,43.58
2022-10-14T06:55:11.727Z,42.43
2022-10-14T06:56:14.166Z,43.14
2022-10-14T06:57:17.063Z,42.14
2022-10-14T06:58:19.403Z,41.90
2022-10-14T06:59:21.537Z,41.10
2022-10-14T07:00:23.698Z,38.80
2022-10-14T07:01:26.125Z,38.60
2022-10-14T07:02:28.473Z,38.01
2022-10-14T07:03:30.887Z,37.67
2022-10-14T07:04:33.154Z,36.69
2022-10-14T07:05:36.589Z,37.02
2022-10-14T07:06:38.776Z,35.92
2022-10-14T07:07:40.973Z,37.34
2022-10-14T07:08:43.363Z,37.21
2022-10-14T07:09:45.449Z,35.95
2022-10-14T07:10:48.411Z,35.47
2022-10-14T07:11:51.305Z,34.66
2022-10-14T07:12:55.242Z,34.51
2022-10-14T07:13:58.127Z,34.34
2022-10-14T07:15:00.474Z,33.67
2022-10-14T07:16:03.585Z,34.38
2022-10-14T07:17:08.388Z,33.12
2022-10-14T07:18:10.433Z,32.65
2022-10-14T07:19:12.950Z,33.07
2022-10-14T07:20:15.274Z,32.11
2022-10-14T07:21:17.515Z,30.61
2022-10-14T07:22:20.128Z,31.92
2022-10-14T07:23:22.721Z,30.95
2022-10-14T07:24:24.770Z,31.23
2022-10-14T07:25:27.026Z,31.28
2022-10-14T07:26:32.670Z,31.38
2022-10-14T07:27:34.960Z,31.52
2022-10-14T07:28:37.517Z,32.40
2022-10-14T07:29:39.651Z,33.56
2022-10-14T07:30:41.676Z,33.13
2022-10-14T07:31:43.778Z,32.75
2022-10-14T07:32:46.169Z,32.78
2022-10-14T07:33:49.634Z,33.66
2022-10-14T07:34:52.169Z,33.05
2022-10-14T07:35:54.300Z,31.80
2022-10-14T07:36:56.364Z,31.78
2022-10-14T07:38:00.440Z,31.51
2022-10-14T07:39:05.914Z,31.90
2022-10-14T07:40:08.933Z,32.05
2022-10-14T07:41:19.462Z,32.32
2022-10-14T07:42:21.804Z,32.28
2022-10-14T07:43:24.451Z,33.20
2022-10-14T07:44:27.461Z,33.29
2022-10-14T07:45:35.348Z,34.74
2022-10-14T07:46:40.564Z,33.75
2022-10-14T07:47:44.838Z,34.23
2022-10-14T07:48:56.531Z,33.46
2022-10-14T07:50:00.336Z,33.93
2022-10-14T07:51:04.032Z,33.44
2022-10-14T07:52:06.558Z,35.54
2022-10-14T07:53:08.824Z,34.28
2022-10-14T07:54:16.992Z,33.98
2022-10-14T07:55:20.512Z,33.72
2022-10-14T07:56:23.589Z,33.86
2022-10-14T07:57:27.832Z,34.34
2022-10-14T07:58:31.904Z,35.86
2022-10-14T07:59:34.109Z,37.20
2022-10-14T08:00:37.568Z,34.60
2022-10-14T08:01:39.906Z,36.59
2022-10-14T08:02:43.299Z,36.56
2022-10-14T08:03:47.411Z,37.14
2022-10-14T08:04:56.456Z,37.32
2022-10-14T08:06:06.933Z,36.66
2022-10-14T08:07:08.876Z,35.80
2022-10-14T08:08:12.173Z,35.79
2022-10-14T08:09:14.541Z,35.41
2022-10-14T08:10:17.964Z,34.51
2022-10-14T08:11:27.173Z,34.80
2022-10-14T08:12:29.360Z,34.76
2022-10-14T08:13:32.194Z,35.09
2022-10-14T08:14:34.410Z,34.65
2022-10-14T08:15:41.573Z,34.98
2022-10-14T08:16:44.367Z,35.64
2022-10-14T08:17:46.562Z,35.53
2022-10-14T08:18:49.191Z,36.91
2022-10-14T08:19:52.898Z,36.95
2022-10-14T08:20:55.149Z,37.76
2022-10-14T08:21:57.217Z,38.00
2022-10-14T08:22:59.760Z,39.62
2022-10-14T08:24:01.832Z,39.43
2022-10-14T08:25:04.457Z,37.77
2022-10-14T08:26:21.903Z,36.60
2022-10-14T08:27:26.799Z,35.88
2022-10-14T08:28:28.996Z,36.01
2022-10-14T08:29:31.157Z,36.82
2022-10-14T08:30:41.901Z,37.92
2022-10-14T08:31:44.651Z,37.67
2022-10-14T08:32:47.253Z,38.50
2022-10-14T08:33:50.029Z,38.47
2022-10-14T08:34:52.232Z,39.84
2022-10-14T08:35:54.721Z,39.32
2022-10-14T08:36:58.102Z,39.11
2022-10-14T08:38:02.003Z,38.89
2022-10-14T08:39:05.839Z,38.57
2022-10-14T08:40:08.840Z,39.99
2022-10-14T08:41:14.118Z,38.93
2022-10-14T08:42:19.619Z,38.64
2022-10-14T08:43:32.105Z,38.95
2022-10-14T08:44:45.966Z,39.60
2022-10-14T08:45:54.717Z,39.60
2022-10-14T08:47:01.716Z,39.33
2022-10-14T08:48:18.655Z,38.07
2022-10-14T08:49:46.335Z,38.84
2022-10-14T08:50:55.020Z,38.75
2022-10-14T08:52:11.142Z,37.94
2022-10-14T08:53:21.856Z,37.56
2022-10-14T08:54:38.908Z,37.74
2022-10-14T08:55:51.135Z,37.64
2022-10-14T08:56:54.899Z,37.73
2022-10-14T08:58:03.235Z,37.89
2022-10-14T08:59:13.999Z,37.81
2022-10-14T09:00:18.300Z,39.94
2022-10-14T09:01:34.794Z,42.58
2022-10-14T09:02:44.538Z,41.69
2022-10-14T09:03:46.785Z,41.78
2022-10-14T09:04:49.114Z,41.14
2022-10-14T09:05:58.222Z,41.17
2022-10-14T09:07:00.910Z,41.48
2022-10-14T09:08:03.371Z,41.49
2022-10-14T09:09:29.993Z,41.43
2022-10-14T09:10:36.924Z,41.75
2022-10-14T09:11:43.040Z,41.64
2022-10-14T09:12:45.776Z,42.14
2022-10-14T09:13:56.227Z,41.89
2022-10-14T09:15:27.677Z,42.52
2022-10-14T09:16:37.556Z,43.53
2022-10-14T09:17:50.543Z,44.45
2022-10-14T09:18:55.242Z,44.47
2022-10-14T09:20:16.747Z,45.78
2022-10-14T09:21:40.496Z,47.38
2022-10-14T09:22:57.489Z,47.89
2022-10-14T09:24:07.634Z,48.32
2022-10-14T09:25:16.986Z,49.09
2022-10-14T09:26:20.648Z,49.13
2022-10-14T09:27:24.241Z,48.08
2022-10-14T09:28:39.010Z,50.36
2022-10-14T09:30:01.785Z,51.42
2022-10-14T09:31:10.131Z,51.30
2022-10-14T09:32:21.051Z,50.74
2022-10-14T09:33:27.256Z,50.43
2022-10-14T09:34:35.033Z,50.16
2022-10-14T09:35:42.533Z,49.94
2022-10-14T09:36:47.400Z,50.18
2022-10-14T09:37:50.203Z,50.61
2022-10-14T09:38:55.877Z,51.46
2022-10-14T09:40:17.602Z,52.63
2022-10-14T09:41:31.242Z,52.97
2022-10-14T09:42:48.952Z,54.22
2022-10-14T09:44:14.512Z,53.89
2022-10-14T09:45:20.032Z,53.29
2022-10-14T09:46:27.224Z,52.17
2022-10-14T09:47:30.097Z,52.18
2022-10-14T09:48:38.632Z,51.55
2022-10-14T09:49:46.548Z,51.46
2022-10-14T09:50:52.188Z,52.33
2022-10-14T09:51:57.012Z,52.13
2022-10-14T09:53:22.678Z,52.28
2022-10-14T09:54:29.660Z,52.28
2022-10-14T09:55:33.166Z,52.59
2022-10-14T09:56:41.746Z,52.94
2022-10-14T09:57:44.877Z,53.41
2022-10-14T09:58:55.410Z,53.54
2022-10-14T10:00:01.238Z,53.31
2022-10-14T10:01:04.383Z,53.55
2022-10-14T10:02:23.511Z,53.97
2022-10-14T10:03:29.225Z,54.75
2022-10-14T10:04:48.009Z,54.74
2022-10-14T10:06:00.026Z,55.62
2022-10-14T10:07:08.318Z,56.04
2022-10-14T10:08:22.250Z,56.21
2022-10-14T10:09:24.955Z,55.48
2022-10-14T10:10:31.187Z,55.50
2022-10-14T10:11:38.188Z,55.73
2022-10-14T10:12:46.565Z,55.04
2022-10-14T10:13:48.612Z,57.14
2022-10-14T10:15:00.210Z,57.14
2022-10-14T10:16:06.159Z,55.70
2022-10-14T10:17:09.313Z,55.77
2022-10-14T10:18:29.442Z,54.42
2022-10-14T10:19:35.074Z,54.45
2022-10-14T10:20:37.854Z,54.50
2022-10-14T10:21:44.693Z,54.75
2022-10-14T10:22:48.350Z,54.89
2022-10-14T10:23:59.871Z,55.60
2022-10-14T10:25:02.155Z,55.33
2022-10-14T10:26:27.434Z,56.83
2022-10-14T10:27:36.918Z,56.15
2022-10-14T10:28:46.298Z,55.84
2022-10-14T10:29:48.450Z,57.25
2022-10-14T10:31:08.037Z,57.74
2022-10-14T10:32:16.850Z,57.24
2022-10-14T10:33:33.327Z,57.03
2022-10-14T10:34:54.751Z,57.55
2022-10-14T10:37:29.939Z,58.46
2022-10-14T10:38:39.622Z,58.25
2022-10-14T10:39:41.706Z,58.87
2022-10-14T10:41:28.038Z,59.17
2022-10-14T10:42:40.100Z,58.49
2022-10-14T10:43:50.867Z,58.98
2022-10-14T10:45:23.452Z,59.11
2022-10-14T10:46:40.874Z,58.77
2022-10-14T10:47:46.914Z,59.40
2022-10-14T10:49:15.352Z,60.56
2022-10-14T10:50:34.038Z,59.36
2022-10-14T10:51:39.048Z,59.22
2022-10-14T10:53:25.007Z,59.25
2022-10-14T10:54:49.006Z,58.72
2022-10-14T10:56:18.583Z,57.47
2022-10-14T10:57:36.812Z,60.08
2022-10-14T10:58:50.969Z,59.19
2022-10-14T11:00:06.422Z,60.67
2022-10-14T11:01:34.407Z,59.66
2022-10-14T11:02:48.827Z,59.51
2022-10-14T11:04:27.069Z,60.45
2022-10-14T11:05:29.119Z,61.57
2022-10-14T11:07:30.920Z,61.22
2022-10-14T11:08:58.330Z,62.01
2022-10-14T11:10:25.300Z,62.10
2022-10-14T11:12:03.635Z,62.73
2022-10-14T11:13:30.741Z,62.25
2022-10-14T11:15:07.250Z,61.56
2022-10-14T11:16:24.209Z,62.36
2022-10-14T11:18:07.026Z,62.06
2022-10-14T11:19:35.166Z,62.24
2022-10-14T11:20:56.324Z,62.92
2022-10-14T11:22:28.993Z,63.18
2022-10-14T11:23:50.203Z,63.06
2022-10-14T11:25:18.629Z,64.04
2022-10-14T11:26:47.716Z,63.65
2022-10-14T11:28:09.494Z,63.62
2022-10-14T11:29:23.459Z,63.59
2022-10-14T11:30:39.510Z,63.31
2022-10-14T11:31:55.200Z,62.63
2022-10-14T11:32:58.393Z,63.50
2022-10-14T11:34:12.771Z,63.67
2022-10-14T11:35:17.264Z,63.03
2022-10-14T11:36:25.268Z,63.21
2022-10-14T11:37:34.168Z,63.32
2022-10-14T11:38:52.324Z,63.33
2022-10-14T11:40:42.805Z,63.90
2022-10-14T11:42:25.300Z,63.86
2022-10-14T11:43:57.684Z,63.96
2022-10-14T11:45:34.921Z,64.33
2022-10-14T11:46:40.830Z,63.96
2022-10-14T11:47:47.898Z,64.28
2022-10-14T11:49:00.348Z,64.34
2022-10-14T11:50:17.660Z,64.34
2022-10-14T11:51:36.081Z,64.15
2022-10-14T11:52:46.066Z,63.93
2022-10-14T11:54:03.419Z,66.54
2022-10-14T11:55:14.769Z,65.14
2022-10-14T11:56:40.343Z,67.39
2022-10-14T11:57:50.872Z,69.15
2022-10-14T11:59:15.596Z,67.28
2022-10-14T12:00:57.661Z,65.82
2022-10-14T12:02:37.602Z,66.36
2022-10-14T12:03:59.109Z,66.24
2022-10-14T12:05:14.551Z,66.31
2022-10-14T12:06:26.225Z,65.94
2022-10-14T12:07:39.714Z,65.53
2022-10-14T12:09:07.448Z,66.71
2022-10-14T12:10:20.866Z,66.97
2022-10-14T12:11:38.494Z,65.45
2022-10-14T12:12:44.264Z,66.63
2022-10-14T12:13:52.598Z,67.04
2022-10-14T12:14:55.588Z,67.35
2022-10-14T12:16:01.166Z,67.17
2022-10-14T12:17:18.391Z,68.44
2022-10-14T12:18:22.499Z,69.55
2022-10-14T12:19:30.017Z,69.65
2022-10-14T12:20:59.093Z,70.38
2022-10-14T12:22:11.060Z,70.65
2022-10-14T12:23:29.566Z,69.94
2022-10-14T12:24:42.348Z,70.58
2022-10-14T12:25:58.785Z,72.22
2022-10-14T12:27:04.935Z,73.88
2022-10-14T12:28:09.186Z,73.89
2022-10-14T12:29:18.703Z,74.61
2022-10-14T12:30:39.914Z,74.65
2022-10-14T12:31:48.379Z,74.51
2022-10-14T12:33:07.575Z,75.68
2022-10-14T12:34:15.895Z,75.97
2022-10-14T12:35:51.190Z,76.01
2022-10-14T12:36:54.860Z,74.58
2022-10-14T12:38:04.093Z,75.62
2022-10-14T12:39:19.018Z,75.01
2022-10-14T12:40:26.791Z,74.51
2022-10-14T12:41:39.905Z,74.33
2022-10-14T12:42:44.630Z,74.72
2022-10-14T12:44:01.919Z,74.82
2022-10-14T12:45:16.866Z,76.54
2022-10-14T12:46:19.181Z,76.41
2022-10-14T12:47:41.604Z,77.89
2022-10-14T12:48:51.950Z,76.50
2022-10-14T12:50:04.826Z,76.55
2022-10-14T12:51:34.763Z,76.19
2022-10-14T12:52:39.065Z,76.24
2022-10-14T12:54:05.094Z,76.85
2022-10-14T12:55:22.926Z,77.04
2022-10-14T12:56:36.812Z,75.64
2022-10-14T12:57:42.194Z,76.75
2022-10-14T12:59:02.131Z,77.42
2022-10-14T13:00:28.969Z,77.32
2022-10-14T13:01:35.475Z,77.57
2022-10-14T13:02:45.817Z,79.32
2022-10-14T13:03:54.721Z,79.62
2022-10-14T13:04:57.166Z,79.79
2022-10-14T13:06:30.677Z,81.97
2022-10-14T13:07:41.578Z,81.73
2022-10-14T13:09:14.484Z,82.21
2022-10-14T13:10:38.453Z,82.03
2022-10-14T13:12:06.523Z,82.65
2022-10-14T13:13:45.213Z,85.00
2022-10-14T13:15:04.443Z,85.75
2022-10-14T13:16:10.485Z,86.51
2022-10-14T13:17:45.790Z,86.39
2022-10-14T13:19:05.606Z,86.42
2022-10-14T13:20:36.250Z,86.30
2022-10-14T13:21:53.529Z,85.86
2022-10-14T13:23:15.643Z,85.70
2022-10-14T13:24:29.220Z,86.61
2022-10-14T13:25:40.147Z,87.43
2022-10-14T13:26:56.167Z,87.07
2022-10-14T13:28:17.043Z,86.51
2022-10-14T13:29:36.309Z,87.27
2022-10-14T13:31:01.664Z,88.87
2022-10-14T13:32:33.702Z,89.00
2022-10-14T13:33:50.823Z,88.41
2022-10-14T13:35:36.026Z,89.78
2022-10-14T13:36:57.834Z,89.98
2022-10-14T13:38:13.234Z,90.74
2022-10-14T13:39:17.110Z,90.69
2022-10-14T13:40:36.107Z,90.46
2022-10-14T13:41:41.369Z,89.68
2022-10-14T13:42:49.299Z,90.83
2022-10-14T13:43:56.981Z,92.45
2022-10-14T13:45:07.156Z,92.38
2022-10-14T13:46:22.892Z,91.84
2022-10-14T13:47:26.590Z,90.88
2022-10-14T13:48:38.541Z,92.39
2022-10-14T13:49:42.092Z,91.82
2022-10-14T13:50:51.307Z,91.67
2022-10-14T13:52:00.581Z,92.08
2022-10-14T13:53:14.299Z,91.17
2022-10-14T13:54:26.019Z,90.31
2022-10-14T13:55:29.875Z,91.49
2022-10-14T13:56:32.967Z,91.22
2022-10-14T13:58:00.028Z,91.29
2022-10-14T13:58:59.055Z,93.99
2022-10-14T14:01:34.321Z,95.22
2022-10-14T14:02:38.986Z,94.50
2022-10-14T14:03:45.437Z,95.54
2022-10-14T14:04:55.414Z,95.38
2022-10-14T14:06:00.221Z,95.42
2022-10-14T14:07:33.202Z,96.01
2022-10-14T14:08:40.507Z,96.26
2022-10-14T14:09:51.715Z,96.12
2022-10-14T14:11:18.065Z,97.74
2022-10-14T14:12:22.797Z,97.30
2022-10-14T14:13:26.786Z,97.38
2022-10-14T14:14:37.597Z,97.51
2022-10-14T14:15:40.686Z,98.38
2022-10-14T14:17:00.518Z,98.16
2022-10-14T14:18:04.528Z,98.93
2022-10-14T14:19:17.898Z,99.12
2022-10-14T14:20:33.298Z,98.80
2022-10-14T14:21:36.051Z,99.53
2022-10-14T14:22:44.384Z,99.39
2022-10-14T14:23:59.995Z,98.84
2022-10-14T14:25:55.605Z,98.63
2022-10-14T14:26:49.472Z,100.00
2022-10-14T14:27:57.361Z,99.41
2022-10-14T14:29:00.948Z,98.28
2022-10-14T14:30:08.589Z,98.84
2022-10-14T14:31:16.989Z,98.01
2022-10-14T14:32:23.705Z,97.02
2022-10-14T14:33:32.539Z,97.21
2022-10-14T14:34:38.822Z,97.23
2022-10-14T14:35:54.501Z,97.40
2022-10-14T14:37:16.587Z,95.49
2022-10-14T14:38:56.786Z,95.39
2022-10-14T14:40:15.317Z,94.93
2022-10-14T14:41:23.666Z,95.99
2022-10-14T14:42:32.114Z,96.29
2022-10-14T14:43:40.847Z,95.22
2022-10-14T14:44:50.351Z,94.31
2022-10-14T14:45:53.612Z,94.68
2022-10-14T14:47:02.405Z,94.45
2022-10-14T14:48:07.367Z,94.65
2022-10-14T14:49:17.654Z,93.99
2022-10-14T14:50:31.611Z,93.26
2022-10-14T14:51:38.262Z,93.35